Time;durP1;ratioP1;P1;durP2;ratioP2;P2;SDS_P1;SDS_P2;PMS_P1;PMS_P2;Temp;Humidity;BMP_temperature;BMP_pressure;BME280_temperature;BME280_humidity;BME280_pressure;Samples;Min_cycle;Max_cycle;Signal;HPM_P1;HPM_P2
2023/04/13 00:00:15;;;;;;;18.82;13.43;;;;;;;6.20;73.04;98572.16;1620329;86;21061;-61
2023/04/13 00:02:44;;;;;;;17.42;13.68;;;;;;;6.20;73.07;98566.98;1621852;86;21007;-61
2023/04/13 00:05:10;;;;;;;20.75;12.85;;;;;;;6.24;73.16;98567.66;1620827;86;21009;-61
2023/04/13 00:07:38;;;;;;;16.48;12.80;;;;;;;6.27;73.21;98567.52;1621382;86;21014;-61
2023/04/13 00:10:10;;;;;;;19.62;13.58;;;;;;;6.29;73.49;98568.28;1618869;86;21137;-61
2023/04/13 00:12:47;;;;;;;19.95;13.53;;;;;;;6.30;73.52;98564.77;1618991;86;21530;-61
2023/04/13 00:15:18;;;;;;;18.70;13.50;;;;;;;6.34;73.47;98561.59;1620829;86;21023;-64
2023/04/13 00:17:46;;;;;;;17.00;12.93;;;;;;;6.36;73.58;98551.53;1621438;86;20975;-61
2023/04/13 00:20:13;;;;;;;20.57;12.88;;;;;;;6.36;73.53;98554.13;1623258;86;20966;-61
2023/04/13 00:22:44;;;;;;;17.80;12.80;;;;;;;6.35;73.93;98551.59;1620966;86;21078;-61
2023/04/13 00:25:15;;;;;;;19.05;13.45;;;;;;;6.35;74.28;98549.84;1616871;86;21462;-62
2023/04/13 00:27:42;;;;;;;16.90;12.95;;;;;;;6.35;74.03;98545.95;1617838;86;20987;-62
2023/04/13 00:30:10;;;;;;;;;;;;;;;6.33;74.08;98540.45;1620082;86;21003;-62
2023/04/13 00:32:38;;;;;;;16.80;11.93;;;;;;;6.30;73.97;98536.25;1617290;86;20993;-61
2023/04/13 00:35:06;;;;;;;16.93;12.65;;;;;;;6.26;74.27;98532.15;1619833;86;21064;-61
2023/04/13 00:37:33;;;;;;;16.70;12.78;;;;;;;6.25;74.32;98535.67;1599032;86;21090;-62
2023/04/13 00:40:01;;;;;;;15.72;12.78;;;;;;;6.23;74.09;98526.66;1593332;86;21042;-64
2023/04/13 00:42:27;;;;;;;20.82;13.00;;;;;;;6.22;75.02;98535.81;1620961;86;21486;-61
2023/04/13 00:44:54;;;;;;;16.52;12.18;;;;;;;6.21;74.55;98534.12;1610727;86;21050;-61
2023/04/13 00:47:31;;;;;;;15.43;11.15;;;;;;;6.21;74.52;98536.71;1613095;87;21031;-61
2023/04/13 00:50:02;;;;;;;17.05;12.15;;;;;;;6.21;74.53;98536.71;1608164;87;21006;-61
2023/04/13 00:52:29;;;;;;;14.43;11.45;;;;;;;6.20;74.49;98535.05;1616040;87;21052;-61
2023/04/13 00:54:57;;;;;;;13.32;11.25;;;;;;;6.18;74.70;98539.45;1610629;87;20975;-61
2023/04/13 00:57:26;;;;;;;15.00;11.60;;;;;;;6.14;74.60;98545.25;1612997;87;21047;-61
2023/04/13 00:59:57;;;;;;;16.35;12.28;;;;;;;6.11;74.58;98548.45;1610741;86;20988;-61
2023/04/13 01:02:23;;;;;;;16.93;11.93;;;;;;;6.08;74.63;98548.57;1612965;87;21039;-61
2023/04/13 01:04:56;;;;;;;16.05;11.83;;;;;;;6.02;74.98;98541.50;1594017;87;21070;-61
2023/04/13 01:07:36;;;;;;;16.75;12.40;;;;;;;5.96;75.20;98545.65;1612557;87;21632;-61
2023/04/13 01:10:29;;;;;;;21.07;13.30;;;;;;;5.95;75.62;98538.80;1602574;87;21070;-61
2023/04/13 01:13:09;;;;;;;19.95;12.50;;;;;;;5.93;75.19;98535.44;1611941;87;21047;-61
2023/04/13 01:15:38;;;;;;;17.07;12.43;;;;;;;5.93;75.17;98532.84;1613238;87;21546;-61
2023/04/13 01:18:07;;;;;;;16.05;12.98;;;;;;;5.94;75.74;98534.55;1614375;87;21095;-61
2023/04/13 01:20:37;;;;;;;17.35;13.72;;;;;;;5.95;75.89;98534.91;1610927;87;21006;-61
2023/04/13 01:23:12;;;;;;;18.73;14.40;;;;;;;5.92;75.52;98536.33;1590639;88;21058;-61
2023/04/13 01:25:51;;;;;;;18.35;13.80;;;;;;;5.87;75.58;98538.28;1580903;89;21103;-61
2023/04/13 01:28:20;;;;;;;17.90;13.68;;;;;;;5.82;76.16;98542.41;1584371;89;21106;-61
2023/04/13 01:30:49;;;;;;;17.17;13.48;;;;;;;5.79;76.17;98542.98;1582161;89;21455;-61
2023/04/13 01:33:16;;;;;;;18.27;13.18;;;;;;;5.77;76.14;98534.44;1586083;89;21499;-61
2023/04/13 01:35:45;;;;;;;17.17;13.40;;;;;;;5.77;76.02;98540.91;1583945;89;21515;-61
2023/04/13 01:38:13;;;;;;;17.60;13.13;;;;;;;5.77;76.17;98537.02;1584178;88;21621;-61
2023/04/13 01:40:41;;;;;;;16.93;13.22;;;;;;;5.75;76.09;98524.63;1602918;88;21499;-61
2023/04/13 01:43:07;;;;;;;19.62;13.32;;;;;;;5.79;76.63;98530.03;1596658;88;21367;-61
2023/04/13 01:45:37;;;;;;;18.27;12.95;;;;;;;5.81;76.52;98529.52;1594416;88;21123;-61
2023/04/13 01:48:13;;;;;;;19.60;14.60;;;;;;;5.83;76.43;98521.22;1584124;88;21061;-61
2023/04/13 01:50:49;;;;;;;18.05;12.50;;;;;;;5.84;76.78;98528.07;1588325;88;21021;-61
2023/04/13 01:53:18;;;;;;;17.95;14.03;;;;;;;5.83;76.28;98525.11;1587338;88;21109;-61
2023/04/13 01:55:48;;;;;;;16.40;12.78;;;;;;;5.83;76.33;98524.65;1638105;86;21023;-61
2023/04/13 01:58:20;;;;;;;17.57;12.53;;;;;;;5.83;76.27;98526.41;1631155;86;21005;-61
2023/04/13 02:00:47;;;;;;;18.02;13.08;;;;;;;5.83;76.32;98528.99;1629620;86;21505;-62
2023/04/13 02:03:15;;;;;;;;;;;;;;;5.81;76.41;98532.10;1633025;86;21002;-61
2023/04/13 02:05:41;;;;;;;16.73;12.95;;;;;;;5.78;76.52;98525.77;1625854;86;20576;-61
2023/04/13 02:08:09;;;;;;;16.07;13.20;;;;;;;5.73;76.18;98529.03;1611434;86;21060;-61
2023/04/13 02:10:40;;;;;;;17.07;13.90;;;;;;;5.67;76.54;98531.91;1629036;86;21339;-61
2023/04/13 02:13:06;;;;;;;18.87;13.75;;;;;;;5.63;76.51;98526.47;1627759;86;21045;-62
2023/04/13 02:15:37;;;;;;;15.50;12.98;;;;;;;5.59;76.55;98533.09;1633645;86;20959;-60
2023/04/13 02:18:04;;;;;;;16.40;13.25;;;;;;;5.55;76.69;98530.27;1631596;86;21025;-61
2023/04/13 02:20:42;;;;;;;18.35;12.70;;;;;;;5.55;76.50;98531.56;1627969;86;20970;-61
2023/04/13 02:23:15;;;;;;;19.07;13.88;;;;;;;5.53;76.52;98532.08;1626892;86;20992;-61
2023/04/13 02:25:42;;;;;;;18.17;13.65;;;;;;;5.53;76.63;98541.60;1627911;86;21068;-61
2023/04/13 02:28:10;;;;;;;19.57;13.58;;;;;;;5.52;76.59;98539.48;1628804;86;21022;-60
2023/04/13 02:30:38;;;;;;;15.20;13.30;;;;;;;5.49;76.63;98538.33;1613522;86;21050;-64
2023/04/13 02:33:06;;;;;;;16.45;13.25;;;;;;;5.46;76.75;98541.05;1626814;86;21049;-62
2023/04/13 02:35:33;;;;;;;20.70;14.25;;;;;;;5.43;76.92;98545.51;1630846;86;21035;-62
2023/04/13 02:37:59;;;;;;;16.67;12.15;;;;;;;5.39;77.02;98547.41;1631303;86;21040;-61
2023/04/13 02:40:26;;;;;;;17.62;13.13;;;;;;;5.36;77.10;98555.31;1628087;86;21013;-61
2023/04/13 02:42:56;;;;;;;17.35;13.05;;;;;;;5.36;77.75;98556.14;1630747;86;21113;-61
2023/04/13 02:45:22;;;;;;;18.55;13.05;;;;;;;5.38;77.40;98558.67;1626478;86;21008;-61
2023/04/13 02:47:50;;;;;;;17.57;13.27;;;;;;;5.39;77.51;98555.17;1621019;86;21001;-61
2023/04/13 02:50:17;;;;;;;17.85;13.05;;;;;;;5.38;77.49;98563.86;1615457;85;21055;-61
2023/04/13 02:52:43;;;;;;;17.67;13.78;;;;;;;5.38;77.25;98566.44;1612607;86;21380;-61
2023/04/13 02:55:10;;;;;;;17.55;13.48;;;;;;;5.38;77.31;98569.03;1615156;86;20975;-62
2023/04/13 02:57:41;;;;;;;19.65;13.53;;;;;;;5.36;77.24;98569.55;1610094;86;20987;-61
2023/04/13 03:00:09;;;;;;;19.50;13.22;;;;;;;5.35;77.32;98570.00;1613555;86;21037;-61
2023/04/13 03:02:37;;;;;;;16.75;13.13;;;;;;;5.35;77.37;98570.46;1619824;86;20968;-61
2023/04/13 03:05:07;;;;;;;16.77;13.93;;;;;;;5.36;77.57;98566.95;1609091;86;20963;-61
2023/04/13 03:07:35;;;;;;;17.98;13.78;;;;;;;5.36;77.64;98568.25;1613330;86;21099;-61
2023/04/13 03:10:07;;;;;;;17.07;13.00;;;;;;;5.36;77.67;98573.42;1615466;86;20986;-61
2023/04/13 03:12:34;;;;;;;17.45;12.60;;;;;;;5.41;77.64;98568.89;1609195;86;21023;-61
2023/04/13 03:15:09;;;;;;;17.37;12.53;;;;;;;5.43;77.79;98563.16;1615548;86;20995;-62
2023/04/13 03:17:29;;;;;;;17.35;12.63;;;;;;;5.46;77.84;98566.94;1612387;86;21026;-62
2023/04/13 03:19:58;;;;;;;20.65;13.90;;;;;;;5.49;77.59;98569.39;1612243;86;20991;-61
2023/04/13 03:22:29;;;;;;;;;;;;;;;5.52;77.80;98569.25;1615442;86;21099;-61
2023/04/13 03:24:53;;;;;;;16.65;13.00;;;;;;;5.55;77.96;98566.52;1611724;86;20197;-61
2023/04/13 03:27:22;;;;;;;19.75;13.75;;;;;;;5.56;77.85;98573.37;1614255;86;21102;-61
2023/04/13 03:29:48;;;;;;;17.98;12.93;;;;;;;5.56;77.85;98573.37;1618115;86;21130;-61
2023/04/13 03:32:14;;;;;;;17.75;12.95;;;;;;;5.55;78.00;98569.11;1612261;86;21066;-61
2023/04/13 03:34:43;;;;;;;19.42;13.22;;;;;;;5.56;78.46;98566.89;1614882;86;21049;-61
2023/04/13 03:37:10;;;;;;;14.73;11.80;;;;;;;5.56;78.96;98566.89;1617567;86;21047;-62
2023/04/13 03:39:38;;;;;;;19.67;12.80;;;;;;;5.61;78.66;98555.88;1615919;86;21015;-61
2023/04/13 03:42:04;;;;;;;18.48;12.47;;;;;;;5.67;79.00;98559.10;1616980;86;21063;-62
2023/04/13 03:44:30;;;;;;;17.63;12.57;;;;;;;5.73;79.81;98556.22;1615755;86;21035;-62
2023/04/13 03:46:57;;;;;;;15.32;11.80;;;;;;;5.78;79.53;98562.03;1617437;86;21046;-66
2023/04/13 03:49:23;;;;;;;17.17;11.90;;;;;;;5.77;78.93;98559.05;1610427;86;21019;-61
2023/04/13 03:51:49;;;;;;;15.88;11.88;;;;;;;5.78;79.66;98559.45;1618275;86;21035;-62
2023/04/13 03:54:16;;;;;;;15.10;12.37;;;;;;;5.76;79.22;98562.55;1613669;86;21089;-61
2023/04/13 03:56:42;;;;;;;15.58;11.60;;;;;;;5.73;79.31;98562.23;1612778;86;21107;-61
2023/04/13 03:59:08;;;;;;;23.42;13.70;;;;;;;5.75;79.24;98557.84;1616235;86;22170;-61
2023/04/13 04:01:34;;;;;;;16.82;12.58;;;;;;;5.76;79.28;98558.67;1615869;86;21527;-61
2023/04/13 04:04:04;;;;;;;14.98;12.80;;;;;;;5.76;79.14;98557.38;1598100;86;21008;-61
2023/04/13 04:06:36;;;;;;;17.82;12.93;;;;;;;5.75;78.96;98551.82;1614578;86;21082;-61
2023/04/13 04:09:04;;;;;;;20.23;13.18;;;;;;;5.76;79.05;98548.31;1617212;86;21007;-61
2023/04/13 04:11:32;;;;;;;22.48;13.62;;;;;;;5.80;79.08;98553.75;1615795;86;21055;-61
2023/04/13 04:13:58;;;;;;;18.27;13.98;;;;;;;5.81;78.92;98553.66;1613995;86;21023;-62
2023/04/13 04:16:26;;;;;;;20.00;14.18;;;;;;;5.86;78.91;98553.92;1616263;86;21165;-61
2023/04/13 04:18:56;;;;;;;18.37;14.78;;;;;;;5.93;78.96;98556.16;1615219;86;21065;-61
2023/04/13 04:21:20;;;;;;;19.95;14.87;;;;;;;5.98;79.32;98558.08;1617258;86;20999;-61
2023/04/13 04:23:47;;;;;;;20.68;15.03;;;;;;;6.04;79.10;98559.08;1615850;86;21024;-61
2023/04/13 04:26:14;;;;;;;18.37;13.80;;;;;;;6.14;79.13;98559.97;1614686;86;21094;-62
2023/04/13 04:28:40;;;;;;;17.77;13.83;;;;;;;6.22;79.15;98569.52;1617115;85;21510;-62
2023/04/13 04:31:11;;;;;;;21.10;15.35;;;;;;;6.30;79.10;98569.13;1614932;86;21502;-61
2023/04/13 04:33:39;;;;;;;18.27;14.23;;;;;;;6.40;79.30;98575.55;1613467;86;21135;-61
2023/04/13 04:36:09;;;;;;;20.12;13.85;;;;;;;6.49;79.64;98577.69;1615535;86;20980;-61
2023/04/13 04:38:35;;;;;;;24.23;15.53;;;;;;;6.61;79.27;98580.12;1616363;86;22139;-62
2023/04/13 04:41:04;;;;;;;19.95;15.00;;;;;;;6.71;79.22;98574.88;1614308;86;21025;-61
2023/04/13 04:43:31;;;;;;;17.37;13.40;;;;;;;6.78;79.10;98576.27;1616404;86;20948;-61
2023/04/13 04:46:03;;;;;;;19.32;14.03;;;;;;;6.88;79.12;98584.42;1632339;85;21569;-61
2023/04/13 04:48:30;;;;;;;25.30;15.83;;;;;;;6.98;79.10;98582.21;1644697;85;21011;-61
2023/04/13 04:50:56;;;;;;;17.32;14.45;;;;;;;7.07;79.00;98580.44;1645885;85;21024;-61
2023/04/13 04:53:26;;;;;;;19.30;14.58;;;;;;;7.11;78.87;98572.86;1641993;85;21789;-62
2023/04/13 04:55:54;;;;;;;23.62;15.70;;;;;;;7.19;78.71;98575.91;1643720;85;21556;-61
2023/04/13 04:58:20;;;;;;;21.85;14.93;;;;;;;7.29;78.68;98579.70;1650410;85;21024;-62
2023/04/13 05:00:48;;;;;;;27.00;16.02;;;;;;;7.35;78.51;98580.68;1651295;85;21005;-61
2023/04/13 05:03:16;;;;;;;24.32;16.20;;;;;;;7.40;78.43;98577.39;1641645;85;21606;-61
2023/04/13 05:05:43;;;;;;;22.27;15.53;;;;;;;7.48;78.21;98579.59;1640936;85;21028;-61
2023/04/13 05:08:10;;;;;;;19.52;13.50;;;;;;;7.53;78.19;98574.13;1646367;85;21574;-61
2023/04/13 05:10:45;;;;;;;19.95;15.63;;;;;;;7.58;78.10;98579.92;1647942;85;20972;-61
2023/04/13 05:13:12;;;;;;;18.05;14.40;;;;;;;7.65;77.98;98581.30;1646498;85;21043;-61
2023/04/13 05:15:39;;;;;;;21.65;15.43;;;;;;;7.69;77.71;98582.80;1646056;85;21078;-61
2023/04/13 05:18:06;;;;;;;21.27;14.60;;;;;;;7.75;77.71;98582.45;1647282;85;21058;-61
2023/04/13 05:20:37;;;;;;;18.70;15.93;;;;;;;7.80;77.49;98576.55;1652977;85;21571;-62
2023/04/13 05:23:03;;;;;;;22.37;15.58;;;;;;;7.82;77.11;98573.42;1640934;85;20980;-61
2023/04/13 05:25:35;;;;;;;18.32;15.08;;;;;;;7.83;77.19;98569.89;1647242;85;21119;-61
2023/04/13 05:27:58;;;;;;;19.50;14.63;;;;;;;7.82;76.89;98560.43;1647986;85;21667;-62
2023/04/13 05:30:24;;;;;;;21.02;14.87;;;;;;;7.81;76.59;98570.89;1642285;85;22190;-61
2023/04/13 05:32:51;;;;;;;20.02;15.23;;;;;;;7.81;76.93;98569.16;1646169;85;21543;-61
2023/04/13 05:35:17;;;;;;;18.97;15.70;;;;;;;7.85;76.86;98573.25;1647899;85;21045;-61
2023/04/13 05:37:45;;;;;;;19.62;14.95;;;;;;;7.91;76.86;98569.95;1644687;85;21741;-62
2023/04/13 05:40:13;;;;;;;21.05;15.53;;;;;;;7.97;76.72;98569.61;1647188;85;21548;-61
2023/04/13 05:42:42;;;;;;;21.37;16.62;;;;;;;8.00;76.78;98566.83;1644792;85;20996;-61
2023/04/13 05:45:11;;;;;;;22.10;15.43;;;;;;;8.04;76.84;98567.05;1642205;85;22068;-62
2023/04/13 05:47:44;;;;;;;29.87;15.72;;;;;;;8.14;76.79;98570.80;1646088;85;21082;-61
2023/04/13 05:50:11;;;;;;;20.17;15.50;;;;;;;8.18;76.52;98569.73;1643039;85;20963;-62
2023/04/13 05:52:38;;;;;;;21.55;16.85;;;;;;;8.22;76.16;98572.52;1645297;85;21114;-62
2023/04/13 05:55:05;;;;;;;28.60;16.32;;;;;;;8.28;76.25;98573.47;1647440;85;21004;-61
2023/04/13 05:57:32;;;;;;;24.98;17.70;;;;;;;8.37;76.32;98572.11;1646317;85;20952;-62
2023/04/13 06:00:06;;;;;;;48.42;43.17;;;;;;;8.50;76.26;98574.89;1643399;85;21498;-62
2023/04/13 06:02:33;;;;;;;38.33;31.33;;;;;;;8.63;76.17;98574.58;1645463;85;21031;-61
2023/04/13 06:05:03;;;;;;;26.25;20.68;;;;;;;8.80;75.96;98580.11;1645816;85;21109;-62
2023/04/13 06:07:33;;;;;;;24.52;17.87;;;;;;;9.02;75.92;98586.20;1639742;85;21474;-61
2023/04/13 06:10:01;;;;;;;26.35;19.37;;;;;;;9.20;76.03;98579.05;1653650;84;21047;-62
2023/04/13 06:12:30;;;;;;;26.97;16.45;;;;;;;9.47;76.10;98580.47;1643568;85;21026;-62
2023/04/13 06:14:58;;;;;;;23.20;15.40;;;;;;;9.77;75.65;98582.93;1644349;85;21149;-62
2023/04/13 06:17:29;;;;;;;23.80;17.32;;;;;;;10.05;74.96;98588.59;1646083;85;21048;-64
2023/04/13 06:20:05;;;;;;;22.75;16.85;;;;;;;10.27;73.35;98592.45;1653663;85;21058;-65
2023/04/13 06:22:37;;;;;;;24.18;16.97;;;;;;;10.47;73.75;98590.72;1654373;84;21114;-64
2023/04/13 06:25:02;;;;;;;19.55;14.15;;;;;;;10.69;72.67;98584.08;1654251;85;20996;-64
2023/04/13 06:27:32;;;;;;;17.85;12.88;;;;;;;10.88;71.20;98597.59;1655111;85;21138;-64
2023/04/13 06:30:02;;;;;;;19.55;13.22;;;;;;;11.07;71.62;98598.99;1659446;85;21093;-65
2023/04/13 06:32:27;;;;;;;14.85;12.18;;;;;;;11.19;71.80;98586.39;1655773;85;21004;-63
2023/04/13 06:34:54;;;;;;;18.15;13.90;;;;;;;11.32;70.93;98587.24;1656597;85;21027;-61
2023/04/13 06:37:20;;;;;;;15.78;11.90;;;;;;;11.42;70.94;98584.82;1654396;85;21524;-64
2023/04/13 06:39:46;;;;;;;17.63;12.97;;;;;;;11.51;70.75;98574.20;1655702;85;21080;-64
2023/04/13 06:42:15;;;;;;;14.60;11.35;;;;;;;11.79;70.87;98590.97;1633137;85;21005;-66
2023/04/13 06:44:41;;;;;;;12.95;10.50;;;;;;;11.98;69.46;98589.67;1661051;85;20993;-67
2023/04/13 06:47:08;;;;;;;15.70;10.68;;;;;;;12.17;69.55;98586.11;1657547;85;21075;-64
2023/04/13 06:49:34;;;;;;;20.45;11.22;;;;;;;12.25;66.60;98590.33;1656906;85;21218;-65
2023/04/13 06:52:00;;;;;;;13.32;10.35;;;;;;;12.37;69.15;98587.77;1654471;85;21032;-63
2023/04/13 06:54:27;;;;;;;18.03;12.13;;;;;;;12.51;66.09;98599.37;1654128;85;21508;-64
2023/04/13 06:56:54;;;;;;;14.05;11.50;;;;;;;12.50;63.48;98596.41;1656003;85;21114;-62
2023/04/13 06:59:23;;;;;;;16.67;11.53;;;;;;;12.53;65.92;98597.48;1642849;84;21506;-62
2023/04/13 07:01:54;;;;;;;13.40;11.60;;;;;;;12.60;66.39;98603.09;1644556;85;20982;-64
2023/04/13 07:04:22;;;;;;;40.75;34.10;;;;;;;12.73;66.30;98596.84;1641821;85;21523;-65
2023/04/13 07:06:49;;;;;;;14.90;11.33;;;;;;;12.88;66.15;98595.34;1647520;84;21130;-62
2023/04/13 07:09:15;;;;;;;13.85;10.45;;;;;;;12.94;65.32;98590.98;1640716;85;21044;-62
2023/04/13 07:11:42;;;;;;;12.68;11.33;;;;;;;12.86;63.87;98588.09;1650459;85;21030;-63
2023/04/13 07:14:08;;;;;;;13.90;10.80;;;;;;;12.86;63.30;98582.86;1648498;85;21030;-65
2023/04/13 07:16:35;;;;;;;11.45;9.70;;;;;;;12.81;64.11;98587.59;1643900;85;21474;-63
2023/04/13 07:19:04;;;;;;;10.80;9.68;;;;;;;13.00;63.19;98583.96;1648392;85;21539;-63
2023/04/13 07:21:32;;;;;;;12.55;9.55;;;;;;;13.24;63.89;98584.35;1643864;85;21048;-64
2023/04/13 07:23:58;;;;;;;10.08;8.83;;;;;;;13.54;64.95;98581.20;1647167;85;21037;-64
2023/04/13 07:26:25;;;;;;;13.77;10.17;;;;;;;13.84;62.79;98589.78;1650952;85;21079;-65
2023/04/13 07:28:52;;;;;;;;;;;;;;;14.17;62.89;98587.59;1632346;85;21143;-65
2023/04/13 07:31:21;;;;;;;15.67;12.50;;;;;;;14.60;62.98;98578.88;1648198;85;20114;-65
2023/04/13 07:33:48;;;;;;;16.37;11.00;;;;;;;15.22;60.79;98589.06;1648617;85;21673;-66
2023/04/13 07:36:15;;;;;;;10.98;9.68;;;;;;;15.67;59.25;98584.78;1644779;85;21000;-66
2023/04/13 07:38:45;;;;;;;11.93;10.68;;;;;;;16.21;58.59;98575.67;1639970;85;20991;-66
2023/04/13 07:41:10;;;;;;;12.58;10.25;;;;;;;16.70;55.85;98579.19;1647706;85;21126;-66
2023/04/13 07:43:41;;;;;;;;;;;;;;;17.29;57.76;98579.14;1626581;85;21565;-66
2023/04/13 07:46:11;;;;;;;11.40;9.98;;;;;;;17.70;51.56;98579.67;1639617;85;20176;-66
2023/04/13 07:48:37;;;;;;;14.03;9.85;;;;;;;18.07;55.23;98577.86;1617713;86;21101;-66
2023/04/13 07:51:10;;;;;;;9.90;8.28;;;;;;;18.44;52.34;98584.85;1634082;86;21057;-66
2023/04/13 07:53:35;;;;;;;9.85;8.78;;;;;;;18.49;53.56;98574.67;1628388;86;21085;-65
2023/04/13 07:56:01;;;;;;;;;;;;;;;18.43;49.92;98583.20;1639911;86;21467;-65
2023/04/13 07:58:28;;;;;;;8.38;6.95;;;;;;;18.67;49.67;98573.83;1633649;86;20484;-65
2023/04/13 08:00:55;;;;;;;8.97;7.60;;;;;;;19.38;51.00;98584.32;1629446;86;21022;-64
2023/04/13 08:03:21;;;;;;;9.58;6.10;;;;;;;20.01;49.54;98582.32;1638589;86;20976;-65
2023/04/13 08:05:47;;;;;;;7.83;6.70;;;;;;;20.54;52.59;98574.02;1636410;86;21015;-64
2023/04/13 08:08:17;;;;;;;11.97;7.60;;;;;;;21.13;51.62;98578.34;1625113;86;21144;-65
2023/04/13 08:10:43;;;;;;;374.50;296.73;;;;;;;21.93;47.85;98573.02;1620468;86;21112;-64
2023/04/13 08:13:10;;;;;;;25.80;22.82;;;;;;;22.26;48.85;98564.38;1630985;86;21031;-64
2023/04/13 08:15:37;;;;;;;19.00;6.78;;;;;;;22.69;48.95;98573.25;1623500;86;21468;-63
2023/04/13 08:18:03;;;;;;;9.80;6.28;;;;;;;22.85;46.02;98567.77;1596023;88;21035;-63
2023/04/13 08:20:29;;;;;;;68.15;57.33;;;;;;;22.77;41.10;98571.36;1619797;86;21058;-64
2023/04/13 08:22:55;;;;;;;8.63;7.83;;;;;;;22.40;47.28;98576.09;1621657;86;21031;-64
2023/04/13 08:25:22;;;;;;;10.05;5.83;;;;;;;22.38;48.16;98584.77;1625988;86;21046;-63
2023/04/13 08:27:50;;;;;;;8.40;5.60;;;;;;;22.24;47.62;98582.86;1626335;86;21433;-63
2023/04/13 08:30:21;;;;;;;13.78;6.53;;;;;;;21.61;41.73;98582.74;1595310;88;21090;-62
2023/04/13 08:32:48;;;;;;;8.40;6.17;;;;;;;20.97;40.37;98597.75;1620558;86;21110;-62
2023/04/13 08:35:14;;;;;;;9.63;6.92;;;;;;;20.30;44.21;98597.30;1626080;86;21096;-63
2023/04/13 08:37:41;;;;;;;11.88;7.08;;;;;;;20.14;42.98;98595.95;1620815;86;21617;-63
2023/04/13 08:40:10;;;;;;;6.95;6.25;;;;;;;20.30;42.71;98602.59;1614708;86;21608;-62
2023/04/13 08:42:40;;;;;;;317.95;195.22;;;;;;;20.41;41.20;98596.67;1622942;86;21573;-62
2023/04/13 08:45:08;;;;;;;467.55;321.13;;;;;;;20.78;44.55;98593.59;1614310;86;21049;-62
2023/04/13 08:47:37;;;;;;;102.40;69.05;;;;;;;21.80;42.39;98593.98;1625853;86;21050;-63
2023/04/13 08:50:04;;;;;;;121.47;90.67;;;;;;;23.17;45.80;98589.84;1655327;85;20981;-62
2023/04/13 08:52:30;;;;;;;69.12;61.08;;;;;;;24.47;45.15;98589.34;1655199;85;21029;-64
2023/04/13 08:54:58;;;;;;;8.50;6.72;;;;;;;25.47;44.82;98577.70;1648700;85;21534;-62
2023/04/13 08:57:26;;;;;;;12.55;5.35;;;;;;;26.11;39.90;98596.16;1648931;85;21028;-62
2023/04/13 08:59:55;;;;;;;7.55;5.85;;;;;;;25.67;36.88;98591.99;1649227;85;21053;-61
2023/04/13 09:02:24;;;;;;;20.65;17.20;;;;;;;25.31;39.48;98589.50;1650839;85;21109;-62
2023/04/13 09:04:54;;;;;;;6.45;5.85;;;;;;;25.72;39.08;98598.61;1647917;85;20996;-62
2023/04/13 09:07:27;;;;;;;10.38;6.58;;;;;;;26.35;40.20;98585.93;1653681;85;21123;-61
2023/04/13 09:09:59;;;;;;;7.90;6.47;;;;;;;27.20;40.45;98593.83;1652563;85;22312;-63
2023/04/13 09:12:27;;;;;;;10.13;6.58;;;;;;;27.78;39.44;98590.41;1648267;85;21074;-62
2023/04/13 09:14:53;;;;;;;32.20;8.45;;;;;;;28.93;41.37;98586.96;1647672;85;21049;-60
2023/04/13 09:17:31;;;;;;;8.55;5.83;;;;;;;29.59;38.19;98585.05;1651691;85;21002;-62
2023/04/13 09:20:19;;;;;;;6.40;5.03;;;;;;;29.80;34.36;98587.02;1589054;88;21041;-62
2023/04/13 09:22:45;;;;;;;7.70;5.78;;;;;;;29.26;35.95;98589.93;1593886;88;21039;-59
2023/04/13 09:25:27;;;;;;;;;;;;;;;29.80;37.45;98592.40;1615667;87;21473;-64
2023/04/13 09:27:56;;;;;;;6.58;4.70;;;;;;;30.37;32.54;98588.94;1610122;87;20250;-61
2023/04/13 09:30:29;;;;;;;8.40;5.70;;;;;;;30.99;36.31;98592.17;1610911;87;21069;-61
2023/04/13 09:33:14;;;;;;;5.37;4.85;;;;;;;31.41;34.68;98596.16;1577477;87;22335;-62
2023/04/13 09:35:35;;;;;;;6.97;5.20;;;;;;;30.52;31.74;98594.72;1608732;87;21094;-60
2023/04/13 09:38:02;;;;;;;6.12;4.80;;;;;;;30.07;33.82;98586.19;1611312;87;21544;-61
2023/04/13 09:40:31;;;;;;;5.25;4.37;;;;;;;30.35;34.45;98591.03;1610518;87;21549;-60
2023/04/13 09:43:06;;;;;;;6.08;4.70;;;;;;;30.51;34.20;98585.00;1611535;86;21043;-60
2023/04/13 09:45:36;;;;;;;8.88;5.65;;;;;;;31.20;33.88;98594.00;1608376;87;21126;-60
2023/04/13 09:48:07;;;;;;;7.37;5.75;;;;;;;31.22;32.81;98587.86;1621495;86;21574;-61
2023/04/13 09:50:35;;;;;;;6.15;4.72;;;;;;;31.29;30.39;98593.97;1622205;86;21098;-60
2023/04/13 09:53:09;;;;;;;7.83;5.28;;;;;;;30.40;27.04;98588.48;1607651;86;21960;-60
2023/04/13 09:55:46;;;;;;;6.83;5.20;;;;;;;28.99;28.97;98598.20;1606092;86;21574;-60
2023/04/13 09:58:11;;;;;;;14.05;5.20;;;;;;;27.98;29.89;98597.59;1619209;86;21110;-60
2023/04/13 10:00:40;;;;;;;8.45;5.50;;;;;;;27.07;29.91;98596.99;1621932;85;21087;-59
2023/04/13 10:03:14;;;;;;;5.90;5.28;;;;;;;26.01;29.12;98595.69;1603665;86;21070;-61
2023/04/13 10:05:46;;;;;;;6.50;5.60;;;;;;;25.38;30.26;98598.92;1617910;86;21097;-63
2023/04/13 10:08:09;;;;;;;7.50;5.75;;;;;;;25.31;29.74;98607.38;1620098;86;21098;-60
2023/04/13 10:10:42;;;;;;;6.80;6.10;;;;;;;25.53;29.49;98610.31;1618821;86;20929;-60
2023/04/13 10:13:23;;;;;;;6.72;5.87;;;;;;;26.33;30.44;98606.73;1622776;86;20996;-60
2023/04/13 10:16:12;;;;;;;5.85;5.25;;;;;;;27.29;28.56;98613.20;1603748;86;22248;-61
2023/04/13 10:19:00;;;;;;;6.30;5.67;;;;;;;27.83;29.00;98609.41;1622584;86;21027;-61
2023/04/13 10:21:45;;;;;;;6.75;5.65;;;;;;;28.50;28.26;98602.45;1623379;85;21063;-61
2023/04/13 10:24:12;;;;;;;6.65;5.30;;;;;;;29.60;27.26;98607.38;1620317;86;20995;-61
2023/04/13 10:26:40;;;;;;;5.85;4.50;;;;;;;29.85;28.77;98593.38;1619481;86;21026;-64
2023/04/13 10:29:08;;;;;;;6.45;4.87;;;;;;;29.85;26.33;98596.59;1622521;86;20983;-61
2023/04/13 10:31:37;;;;;;;7.65;5.12;;;;;;;29.39;26.01;98595.19;1620545;86;21055;-61
2023/04/13 10:34:07;;;;;;;7.85;4.90;;;;;;;28.97;27.50;98601.09;1602421;86;21050;-61
2023/04/13 10:36:41;;;;;;;12.75;5.20;;;;;;;29.16;28.11;98597.98;1617559;86;20980;-61
2023/04/13 10:39:09;;;;;;;5.65;4.20;;;;;;;30.58;28.69;98593.51;1618662;86;21613;-61
2023/04/13 10:41:36;;;;;;;7.75;4.05;;;;;;;32.04;28.42;98586.98;1619295;86;21100;-61
2023/04/13 10:44:07;;;;;;;5.37;4.80;;;;;;;33.16;26.43;98588.22;1618138;86;21014;-62
2023/04/13 10:46:34;;;;;;;12.20;4.33;;;;;;;33.17;26.28;98592.58;1617570;86;21703;-61
2023/04/13 10:49:02;;;;;;;4.55;4.12;;;;;;;32.21;26.60;98586.54;1623973;86;21470;-64
2023/04/13 10:51:43;;;;;;;4.62;4.10;;;;;;;32.40;27.11;98587.69;1622011;86;21097;-61
2023/04/13 10:54:13;;;;;;;5.33;4.10;;;;;;;32.41;26.30;98592.86;1621835;86;21146;-61
2023/04/13 10:56:39;;;;;;;10.28;5.90;;;;;;;33.05;26.69;98603.48;1620242;86;21447;-60
2023/04/13 10:59:05;;;;;;;15.88;6.22;;;;;;;33.25;25.34;98600.82;1623454;86;21055;-61
2023/04/13 11:01:34;;;;;;;6.17;4.17;;;;;;;32.90;24.51;98605.89;1616681;86;21032;-61
2023/04/13 11:04:05;;;;;;;6.35;4.33;;;;;;;32.01;23.94;98606.36;1625972;86;21083;-62
2023/04/13 11:06:37;;;;;;;4.45;3.85;;;;;;;31.87;25.04;98605.78;1619486;86;21048;-59
2023/04/13 11:09:10;;;;;;;6.87;4.85;;;;;;;32.80;25.49;98603.01;1574522;89;21094;-59
2023/04/13 11:11:33;;;;;;;4.60;4.15;;;;;;;33.80;25.66;98601.34;1582466;88;21126;-59
2023/04/13 11:13:59;;;;;;;5.22;4.25;;;;;;;34.19;23.36;98606.72;1586666;88;21042;-65
2023/04/13 11:16:25;;;;;;;5.40;4.90;;;;;;;33.74;24.27;98606.41;1589030;89;22595;-62
2023/04/13 11:19:02;;;;;;;4.90;3.75;;;;;;;34.17;24.30;98605.64;1585546;88;21581;-62
2023/04/13 11:21:30;;;;;;;5.72;4.67;;;;;;;35.02;24.80;98605.95;1581506;88;21117;-65
2023/04/13 11:24:01;;;;;;;5.40;4.33;;;;;;;36.37;24.26;98605.11;1581580;88;21681;-63
2023/04/13 11:26:32;;;;;;;4.45;4.00;;;;;;;35.81;23.43;98600.27;1567627;89;21203;-63
2023/04/13 11:28:59;;;;;;;8.40;4.70;;;;;;;35.44;22.63;98592.17;1584317;88;21752;-64
2023/04/13 11:31:39;;;;;;;7.95;5.17;;;;;;;35.44;22.63;98592.17;1582643;89;21103;-63
2023/04/13 11:34:08;;;;;;;12.07;4.53;;;;;;;34.67;20.87;98607.80;1559414;89;21677;-63